sensor_id;sensor_type;location;lat;lon;timestamp;P1;durP1;ratioP1;P2;durP2;ratioP2
11394;SDS011;5753;54.402;10.220;2023-02-28T00:02:26;6.85;;;5.88;;
11394;SDS011;5753;54.402;10.220;2023-02-28T00:04:52;14.65;;;7.47;;
11394;SDS011;5753;54.402;10.220;2023-02-28T00:07:26;6.97;;;5.05;;
11394;SDS011;5753;54.402;10.220;2023-02-28T00:09:53;14.50;;;7.20;;
11394;SDS011;5753;54.402;10.220;2023-02-28T00:12:19;6.20;;;4.88;;
11394;SDS011;5753;54.402;10.220;2023-02-28T00:14:45;7.43;;;5.13;;
11394;SDS011;5753;54.402;10.220;2023-02-28T00:17:12;10.45;;;6.35;;
11394;SDS011;5753;54.402;10.220;2023-02-28T00:19:38;6.82;;;6.13;;
11394;SDS011;5753;54.402;10.220;2023-02-28T00:22:04;12.55;;;7.18;;
11394;SDS011;5753;54.402;10.220;2023-02-28T00:24:30;7.15;;;6.00;;
11394;SDS011;5753;54.402;10.220;2023-02-28T00:26:56;10.40;;;5.47;;
11394;SDS011;5753;54.402;10.220;2023-02-28T00:29:23;7.80;;;5.07;;
11394;SDS011;5753;54.402;10.220;2023-02-28T00:31:49;10.52;;;6.32;;
11394;SDS011;5753;54.402;10.220;2023-02-28T00:34:15;7.72;;;4.70;;
11394;SDS011;5753;54.402;10.220;2023-02-28T00:36:41;7.72;;;4.25;;
11394;SDS011;5753;54.402;10.220;2023-02-28T00:39:10;7.10;;;4.70;;
11394;SDS011;5753;54.402;10.220;2023-02-28T00:41:37;10.40;;;4.88;;
11394;SDS011;5753;54.402;10.220;2023-02-28T00:46:39;5.72;;;4.15;;
11394;SDS011;5753;54.402;10.220;2023-02-28T00:49:05;5.35;;;3.20;;
11394;SDS011;5753;54.402;10.220;2023-02-28T00:51:31;5.90;;;2.88;;
11394;SDS011;5753;54.402;10.220;2023-02-28T00:53:57;5.88;;;3.88;;
11394;SDS011;5753;54.402;10.220;2023-02-28T00:56:23;10.02;;;3.92;;
11394;SDS011;5753;54.402;10.220;2023-02-28T00:58:49;14.25;;;3.60;;
11394;SDS011;5753;54.402;10.220;2023-02-28T01:01:15;5.95;;;4.65;;
11394;SDS011;5753;54.402;10.220;2023-02-28T01:03:42;6.88;;;4.43;;
11394;SDS011;5753;54.402;10.220;2023-02-28T01:06:08;6.70;;;4.80;;
11394;SDS011;5753;54.402;10.220;2023-02-28T01:08:34;5.57;;;5.05;;
11394;SDS011;5753;54.402;10.220;2023-02-28T01:11:06;8.88;;;5.32;;
11394;SDS011;5753;54.402;10.220;2023-02-28T01:13:34;8.93;;;5.50;;
11394;SDS011;5753;54.402;10.220;2023-02-28T01:16:00;10.43;;;6.97;;
11394;SDS011;5753;54.402;10.220;2023-02-28T01:18:27;7.80;;;6.10;;
11394;SDS011;5753;54.402;10.220;2023-02-28T01:20:53;8.40;;;4.55;;
11394;SDS011;5753;54.402;10.220;2023-02-28T01:23:20;7.03;;;4.47;;
11394;SDS011;5753;54.402;10.220;2023-02-28T01:25:48;8.45;;;5.57;;
11394;SDS011;5753;54.402;10.220;2023-02-28T01:28:15;7.45;;;4.72;;
11394;SDS011;5753;54.402;10.220;2023-02-28T01:30:42;8.23;;;4.43;;
11394;SDS011;5753;54.402;10.220;2023-02-28T01:33:12;7.20;;;5.18;;
11394;SDS011;5753;54.402;10.220;2023-02-28T01:35:38;5.43;;;4.95;;
11394;SDS011;5753;54.402;10.220;2023-02-28T01:38:04;6.07;;;5.43;;
11394;SDS011;5753;54.402;10.220;2023-02-28T01:40:30;6.43;;;4.45;;
11394;SDS011;5753;54.402;10.220;2023-02-28T01:42:56;7.40;;;4.13;;
11394;SDS011;5753;54.402;10.220;2023-02-28T01:47:54;7.03;;;4.45;;
11394;SDS011;5753;54.402;10.220;2023-02-28T01:50:28;10.68;;;5.85;;
11394;SDS011;5753;54.402;10.220;2023-02-28T01:52:59;10.05;;;4.95;;
11394;SDS011;5753;54.402;10.220;2023-02-28T01:55:28;4.70;;;4.32;;
11394;SDS011;5753;54.402;10.220;2023-02-28T01:57:56;11.25;;;4.85;;
11394;SDS011;5753;54.402;10.220;2023-02-28T02:00:27;8.77;;;5.82;;
11394;SDS011;5753;54.402;10.220;2023-02-28T02:02:55;6.93;;;5.60;;
11394;SDS011;5753;54.402;10.220;2023-02-28T02:05:31;9.23;;;4.85;;
11394;SDS011;5753;54.402;10.220;2023-02-28T02:08:03;14.88;;;5.35;;
11394;SDS011;5753;54.402;10.220;2023-02-28T02:16:00;8.80;;;5.95;;
11394;SDS011;5753;54.402;10.220;2023-02-28T02:18:57;6.35;;;4.75;;
11394;SDS011;5753;54.402;10.220;2023-02-28T02:21:51;14.02;;;6.50;;
11394;SDS011;5753;54.402;10.220;2023-02-28T02:27:25;9.10;;;7.45;;
11394;SDS011;5753;54.402;10.220;2023-02-28T02:38:13;8.13;;;4.30;;
11394;SDS011;5753;54.402;10.220;2023-02-28T02:41:45;5.20;;;4.70;;
11394;SDS011;5753;54.402;10.220;2023-02-28T02:43:50;7.80;;;4.50;;
11394;SDS011;5753;54.402;10.220;2023-02-28T02:46:38;15.63;;;4.45;;
11394;SDS011;5753;54.402;10.220;2023-02-28T02:49:18;7.82;;;4.63;;
11394;SDS011;5753;54.402;10.220;2023-02-28T02:52:07;5.55;;;4.20;;
11394;SDS011;5753;54.402;10.220;2023-02-28T02:54:37;14.00;;;3.85;;
11394;SDS011;5753;54.402;10.220;2023-02-28T02:57:10;5.60;;;4.65;;
11394;SDS011;5753;54.402;10.220;2023-02-28T02:59:43;5.70;;;4.72;;
11394;SDS011;5753;54.402;10.220;2023-02-28T03:02:12;4.50;;;4.05;;
11394;SDS011;5753;54.402;10.220;2023-02-28T03:04:42;8.05;;;4.10;;
11394;SDS011;5753;54.402;10.220;2023-02-28T03:07:31;7.28;;;4.43;;
11394;SDS011;5753;54.402;10.220;2023-02-28T03:09:57;6.18;;;4.10;;
11394;SDS011;5753;54.402;10.220;2023-02-28T03:12:27;6.43;;;4.88;;
11394;SDS011;5753;54.402;10.220;2023-02-28T03:15:40;9.10;;;3.83;;
11394;SDS011;5753;54.402;10.220;2023-02-28T03:18:32;3.70;;;3.28;;
11394;SDS011;5753;54.402;10.220;2023-02-28T03:21:13;4.70;;;3.22;;
11394;SDS011;5753;54.402;10.220;2023-02-28T03:26:36;10.32;;;4.75;;
11394;SDS011;5753;54.402;10.220;2023-02-28T03:29:13;4.18;;;3.22;;
11394;SDS011;5753;54.402;10.220;2023-02-28T03:31:54;4.93;;;3.70;;
11394;SDS011;5753;54.402;10.220;2023-02-28T03:34:37;3.35;;;3.05;;
11394;SDS011;5753;54.402;10.220;2023-02-28T03:37:17;7.30;;;3.90;;
11394;SDS011;5753;54.402;10.220;2023-02-28T03:39:49;4.13;;;3.17;;
11394;SDS011;5753;54.402;10.220;2023-02-28T03:42:44;7.05;;;4.30;;
11394;SDS011;5753;54.402;10.220;2023-02-28T03:45:24;7.32;;;5.00;;
11394;SDS011;5753;54.402;10.220;2023-02-28T03:51:06;7.78;;;3.83;;
11394;SDS011;5753;54.402;10.220;2023-02-28T03:53:17;6.35;;;3.30;;
11394;SDS011;5753;54.402;10.220;2023-02-28T03:55:53;6.53;;;3.63;;
11394;SDS011;5753;54.402;10.220;2023-02-28T03:59:10;7.17;;;4.60;;
11394;SDS011;5753;54.402;10.220;2023-02-28T04:01:27;5.93;;;5.22;;
11394;SDS011;5753;54.402;10.220;2023-02-28T04:04:01;8.07;;;6.60;;
11394;SDS011;5753;54.402;10.220;2023-02-28T04:06:29;6.80;;;3.95;;
11394;SDS011;5753;54.402;10.220;2023-02-28T04:08:57;9.50;;;5.18;;
11394;SDS011;5753;54.402;10.220;2023-02-28T04:13:59;10.35;;;5.38;;
11394;SDS011;5753;54.402;10.220;2023-02-28T04:16:27;8.88;;;5.13;;
11394;SDS011;5753;54.402;10.220;2023-02-28T04:18:54;12.25;;;5.65;;
11394;SDS011;5753;54.402;10.220;2023-02-28T04:21:27;4.10;;;3.45;;
11394;SDS011;5753;54.402;10.220;2023-02-28T04:24:23;4.28;;;3.92;;
11394;SDS011;5753;54.402;10.220;2023-02-28T04:26:52;7.72;;;5.45;;
11394;SDS011;5753;54.402;10.220;2023-02-28T04:29:21;8.05;;;5.18;;
11394;SDS011;5753;54.402;10.220;2023-02-28T04:31:48;12.75;;;5.05;;
11394;SDS011;5753;54.402;10.220;2023-02-28T04:34:14;4.78;;;4.05;;
11394;SDS011;5753;54.402;10.220;2023-02-28T04:36:41;11.75;;;5.55;;
11394;SDS011;5753;54.402;10.220;2023-02-28T04:39:07;11.13;;;5.45;;
11394;SDS011;5753;54.402;10.220;2023-02-28T04:41:34;6.20;;;4.72;;
11394;SDS011;5753;54.402;10.220;2023-02-28T04:44:00;5.18;;;4.60;;
11394;SDS011;5753;54.402;10.220;2023-02-28T04:46:27;9.40;;;5.03;;
11394;SDS011;5753;54.402;10.220;2023-02-28T04:48:53;5.00;;;4.40;;
11394;SDS011;5753;54.402;10.220;2023-02-28T04:51:19;9.00;;;5.35;;
11394;SDS011;5753;54.402;10.220;2023-02-28T04:53:46;9.68;;;5.82;;
11394;SDS011;5753;54.402;10.220;2023-02-28T04:56:13;9.80;;;3.85;;
11394;SDS011;5753;54.402;10.220;2023-02-28T04:58:41;7.88;;;5.32;;
11394;SDS011;5753;54.402;10.220;2023-02-28T05:03:51;5.88;;;4.63;;
11394;SDS011;5753;54.402;10.220;2023-02-28T05:06:19;10.60;;;5.07;;
11394;SDS011;5753;54.402;10.220;2023-02-28T05:08:46;12.77;;;5.03;;
11394;SDS011;5753;54.402;10.220;2023-02-28T05:11:14;8.75;;;4.97;;
11394;SDS011;5753;54.402;10.220;2023-02-28T05:13:45;8.35;;;5.55;;
11394;SDS011;5753;54.402;10.220;2023-02-28T05:16:12;8.90;;;5.90;;
11394;SDS011;5753;54.402;10.220;2023-02-28T05:18:38;7.60;;;5.35;;
11394;SDS011;5753;54.402;10.220;2023-02-28T05:21:05;5.65;;;5.10;;
11394;SDS011;5753;54.402;10.220;2023-02-28T05:23:48;7.35;;;6.38;;
11394;SDS011;5753;54.402;10.220;2023-02-28T05:26:14;11.20;;;7.55;;
11394;SDS011;5753;54.402;10.220;2023-02-28T05:28:40;8.10;;;5.47;;
11394;SDS011;5753;54.402;10.220;2023-02-28T05:31:07;9.35;;;5.55;;
11394;SDS011;5753;54.402;10.220;2023-02-28T05:33:37;8.40;;;4.90;;
11394;SDS011;5753;54.402;10.220;2023-02-28T05:36:03;9.95;;;5.13;;
11394;SDS011;5753;54.402;10.220;2023-02-28T05:38:30;8.95;;;5.78;;
11394;SDS011;5753;54.402;10.220;2023-02-28T05:40:56;6.22;;;4.97;;
11394;SDS011;5753;54.402;10.220;2023-02-28T05:43:23;8.52;;;5.80;;
11394;SDS011;5753;54.402;10.220;2023-02-28T05:45:49;9.80;;;5.55;;
11394;SDS011;5753;54.402;10.220;2023-02-28T05:48:15;8.80;;;5.60;;
11394;SDS011;5753;54.402;10.220;2023-02-28T05:50:43;10.77;;;7.97;;
11394;SDS011;5753;54.402;10.220;2023-02-28T05:53:11;10.07;;;6.97;;
11394;SDS011;5753;54.402;10.220;2023-02-28T05:55:37;9.95;;;6.22;;
11394;SDS011;5753;54.402;10.220;2023-02-28T05:58:03;9.45;;;5.63;;
11394;SDS011;5753;54.402;10.220;2023-02-28T06:00:29;10.27;;;7.10;;
11394;SDS011;5753;54.402;10.220;2023-02-28T06:02:56;9.20;;;6.32;;
11394;SDS011;5753;54.402;10.220;2023-02-28T06:05:24;8.10;;;5.30;;
11394;SDS011;5753;54.402;10.220;2023-02-28T06:07:51;10.95;;;7.20;;
11394;SDS011;5753;54.402;10.220;2023-02-28T06:10:17;14.95;;;6.15;;
11394;SDS011;5753;54.402;10.220;2023-02-28T06:12:44;11.43;;;7.03;;
11394;SDS011;5753;54.402;10.220;2023-02-28T06:15:14;6.95;;;6.00;;
11394;SDS011;5753;54.402;10.220;2023-02-28T06:17:42;10.27;;;6.88;;
11394;SDS011;5753;54.402;10.220;2023-02-28T06:20:09;12.68;;;7.20;;
11394;SDS011;5753;54.402;10.220;2023-02-28T06:22:38;14.98;;;7.47;;
11394;SDS011;5753;54.402;10.220;2023-02-28T06:25:05;17.05;;;9.25;;
11394;SDS011;5753;54.402;10.220;2023-02-28T06:27:32;8.70;;;7.15;;
11394;SDS011;5753;54.402;10.220;2023-02-28T06:29:58;12.75;;;8.13;;
11394;SDS011;5753;54.402;10.220;2023-02-28T06:32:25;7.85;;;6.53;;
11394;SDS011;5753;54.402;10.220;2023-02-28T06:34:51;7.75;;;6.80;;
11394;SDS011;5753;54.402;10.220;2023-02-28T06:37:18;9.82;;;7.63;;
11394;SDS011;5753;54.402;10.220;2023-02-28T06:39:44;14.10;;;8.35;;
11394;SDS011;5753;54.402;10.220;2023-02-28T06:42:10;12.55;;;9.15;;
11394;SDS011;5753;54.402;10.220;2023-02-28T06:44:36;10.27;;;8.00;;
11394;SDS011;5753;54.402;10.220;2023-02-28T06:47:04;13.85;;;7.95;;
11394;SDS011;5753;54.402;10.220;2023-02-28T06:49:32;8.98;;;6.72;;
11394;SDS011;5753;54.402;10.220;2023-02-28T06:51:59;11.18;;;8.80;;
11394;SDS011;5753;54.402;10.220;2023-02-28T06:54:25;8.25;;;7.35;;
11394;SDS011;5753;54.402;10.220;2023-02-28T06:56:52;9.50;;;6.82;;
11394;SDS011;5753;54.402;10.220;2023-02-28T06:59:19;18.73;;;9.75;;
11394;SDS011;5753;54.402;10.220;2023-02-28T07:01:46;13.77;;;9.05;;
11394;SDS011;5753;54.402;10.220;2023-02-28T07:04:12;21.10;;;8.85;;
11394;SDS011;5753;54.402;10.220;2023-02-28T07:06:38;16.50;;;9.20;;
11394;SDS011;5753;54.402;10.220;2023-02-28T07:09:04;15.32;;;9.25;;
11394;SDS011;5753;54.402;10.220;2023-02-28T07:11:31;11.80;;;9.80;;
11394;SDS011;5753;54.402;10.220;2023-02-28T07:13:57;11.85;;;9.45;;
11394;SDS011;5753;54.402;10.220;2023-02-28T07:16:24;10.93;;;9.52;;
11394;SDS011;5753;54.402;10.220;2023-02-28T07:18:53;16.90;;;8.70;;
11394;SDS011;5753;54.402;10.220;2023-02-28T07:21:20;18.40;;;11.25;;
11394;SDS011;5753;54.402;10.220;2023-02-28T07:23:46;14.60;;;9.98;;
11394;SDS011;5753;54.402;10.220;2023-02-28T07:26:14;19.77;;;9.65;;
11394;SDS011;5753;54.402;10.220;2023-02-28T07:28:42;14.68;;;8.98;;
11394;SDS011;5753;54.402;10.220;2023-02-28T07:31:09;16.65;;;14.13;;
11394;SDS011;5753;54.402;10.220;2023-02-28T07:33:36;18.35;;;10.90;;
11394;SDS011;5753;54.402;10.220;2023-02-28T07:36:04;14.93;;;12.07;;
11394;SDS011;5753;54.402;10.220;2023-02-28T07:38:34;19.13;;;10.23;;
11394;SDS011;5753;54.402;10.220;2023-02-28T07:41:00;18.48;;;8.20;;
11394;SDS011;5753;54.402;10.220;2023-02-28T07:43:33;18.48;;;10.73;;
11394;SDS011;5753;54.402;10.220;2023-02-28T07:46:17;11.77;;;10.38;;
11394;SDS011;5753;54.402;10.220;2023-02-28T07:48:46;20.65;;;10.18;;
11394;SDS011;5753;54.402;10.220;2023-02-28T07:51:12;13.63;;;8.57;;
11394;SDS011;5753;54.402;10.220;2023-02-28T07:53:38;11.68;;;8.00;;
11394;SDS011;5753;54.402;10.220;2023-02-28T07:56:04;12.57;;;8.98;;
11394;SDS011;5753;54.402;10.220;2023-02-28T07:58:31;11.98;;;9.27;;
11394;SDS011;5753;54.402;10.220;2023-02-28T08:01:04;11.43;;;9.10;;
11394;SDS011;5753;54.402;10.220;2023-02-28T08:03:31;13.93;;;9.35;;
11394;SDS011;5753;54.402;10.220;2023-02-28T08:05:57;16.98;;;10.55;;
11394;SDS011;5753;54.402;10.220;2023-02-28T08:08:23;14.15;;;8.13;;
11394;SDS011;5753;54.402;10.220;2023-02-28T08:10:54;11.82;;;9.80;;
11394;SDS011;5753;54.402;10.220;2023-02-28T08:13:20;7.20;;;6.45;;
11394;SDS011;5753;54.402;10.220;2023-02-28T08:15:46;9.73;;;8.20;;
11394;SDS011;5753;54.402;10.220;2023-02-28T08:18:12;13.88;;;7.32;;
11394;SDS011;5753;54.402;10.220;2023-02-28T08:20:38;9.25;;;8.35;;
11394;SDS011;5753;54.402;10.220;2023-02-28T08:23:04;8.63;;;6.05;;
11394;SDS011;5753;54.402;10.220;2023-02-28T08:25:31;15.48;;;9.77;;
11394;SDS011;5753;54.402;10.220;2023-02-28T08:27:57;11.68;;;9.02;;
11394;SDS011;5753;54.402;10.220;2023-02-28T08:30:23;9.50;;;6.40;;
11394;SDS011;5753;54.402;10.220;2023-02-28T08:32:49;9.55;;;6.75;;
11394;SDS011;5753;54.402;10.220;2023-02-28T08:35:15;8.80;;;7.13;;
11394;SDS011;5753;54.402;10.220;2023-02-28T08:37:42;14.80;;;8.40;;
11394;SDS011;5753;54.402;10.220;2023-02-28T08:40:08;14.50;;;8.02;;
11394;SDS011;5753;54.402;10.220;2023-02-28T08:42:35;9.18;;;5.55;;
11394;SDS011;5753;54.402;10.220;2023-02-28T08:45:01;10.60;;;7.93;;
11394;SDS011;5753;54.402;10.220;2023-02-28T08:47:27;9.07;;;8.02;;
11394;SDS011;5753;54.402;10.220;2023-02-28T08:49:54;14.13;;;8.40;;
11394;SDS011;5753;54.402;10.220;2023-02-28T08:52:20;8.85;;;5.47;;
11394;SDS011;5753;54.402;10.220;2023-02-28T08:54:46;16.65;;;6.53;;
11394;SDS011;5753;54.402;10.220;2023-02-28T08:57:12;11.77;;;6.75;;
11394;SDS011;5753;54.402;10.220;2023-02-28T08:59:38;11.70;;;8.35;;
11394;SDS011;5753;54.402;10.220;2023-02-28T09:02:05;16.75;;;8.88;;
11394;SDS011;5753;54.402;10.220;2023-02-28T09:04:31;9.93;;;7.55;;
11394;SDS011;5753;54.402;10.220;2023-02-28T09:06:58;10.60;;;8.20;;
11394;SDS011;5753;54.402;10.220;2023-02-28T09:09:24;19.08;;;8.63;;
11394;SDS011;5753;54.402;10.220;2023-02-28T09:11:50;11.85;;;7.75;;
11394;SDS011;5753;54.402;10.220;2023-02-28T09:14:17;14.32;;;9.48;;
11394;SDS011;5753;54.402;10.220;2023-02-28T09:16:43;9.02;;;6.40;;
11394;SDS011;5753;54.402;10.220;2023-02-28T09:19:12;12.93;;;7.97;;
11394;SDS011;5753;54.402;10.220;2023-02-28T09:21:39;12.02;;;7.10;;
11394;SDS011;5753;54.402;10.220;2023-02-28T09:24:05;10.77;;;8.15;;
11394;SDS011;5753;54.402;10.220;2023-02-28T09:26:32;14.75;;;8.60;;
11394;SDS011;5753;54.402;10.220;2023-02-28T09:28:59;15.30;;;9.68;;
11394;SDS011;5753;54.402;10.220;2023-02-28T09:31:27;16.70;;;10.13;;
11394;SDS011;5753;54.402;10.220;2023-02-28T09:33:54;26.48;;;9.88;;
11394;SDS011;5753;54.402;10.220;2023-02-28T09:36:22;15.85;;;9.13;;
11394;SDS011;5753;54.402;10.220;2023-02-28T09:38:50;12.30;;;9.38;;
11394;SDS011;5753;54.402;10.220;2023-02-28T09:41:22;16.77;;;8.82;;
11394;SDS011;5753;54.402;10.220;2023-02-28T09:43:54;10.70;;;7.70;;
11394;SDS011;5753;54.402;10.220;2023-02-28T09:46:33;11.43;;;5.90;;
11394;SDS011;5753;54.402;10.220;2023-02-28T09:49:16;11.80;;;6.97;;
11394;SDS011;5753;54.402;10.220;2023-02-28T09:51:50;16.40;;;7.32;;
11394;SDS011;5753;54.402;10.220;2023-02-28T09:54:30;12.98;;;7.35;;
11394;SDS011;5753;54.402;10.220;2023-02-28T10:04:59;7.47;;;4.72;;
11394;SDS011;5753;54.402;10.220;2023-02-28T10:10:26;9.23;;;5.55;;
11394;SDS011;5753;54.402;10.220;2023-02-28T10:12:58;10.75;;;3.67;;
11394;SDS011;5753;54.402;10.220;2023-02-28T10:15:28;5.43;;;2.90;;
11394;SDS011;5753;54.402;10.220;2023-02-28T10:17:58;6.20;;;4.82;;
11394;SDS011;5753;54.402;10.220;2023-02-28T10:20:28;4.82;;;3.50;;
11394;SDS011;5753;54.402;10.220;2023-02-28T10:25:23;4.18;;;3.80;;
11394;SDS011;5753;54.402;10.220;2023-02-28T10:27:59;3.15;;;2.60;;
11394;SDS011;5753;54.402;10.220;2023-02-28T10:30:34;3.85;;;1.85;;
11394;SDS011;5753;54.402;10.220;2023-02-28T10:33:08;4.05;;;2.50;;
11394;SDS011;5753;54.402;10.220;2023-02-28T10:35:47;4.10;;;2.83;;
11394;SDS011;5753;54.402;10.220;2023-02-28T10:38:21;3.63;;;1.85;;
11394;SDS011;5753;54.402;10.220;2023-02-28T10:41:02;2.65;;;2.17;;
11394;SDS011;5753;54.402;10.220;2023-02-28T10:43:38;1.85;;;1.70;;
11394;SDS011;5753;54.402;10.220;2023-02-28T10:48:39;3.75;;;3.45;;
11394;SDS011;5753;54.402;10.220;2023-02-28T10:51:12;3.35;;;1.75;;
11394;SDS011;5753;54.402;10.220;2023-02-28T10:53:54;6.18;;;2.58;;
11394;SDS011;5753;54.402;10.220;2023-02-28T10:56:22;2.38;;;1.63;;
11394;SDS011;5753;54.402;10.220;2023-02-28T11:01:24;3.17;;;2.13;;
11394;SDS011;5753;54.402;10.220;2023-02-28T11:03:57;4.75;;;2.47;;
11394;SDS011;5753;54.402;10.220;2023-02-28T11:08:58;5.40;;;2.60;;
11394;SDS011;5753;54.402;10.220;2023-02-28T11:11:30;3.22;;;1.90;;
11394;SDS011;5753;54.402;10.220;2023-02-28T11:14:14;3.95;;;2.42;;
11394;SDS011;5753;54.402;10.220;2023-02-28T11:16:49;3.80;;;1.88;;
11394;SDS011;5753;54.402;10.220;2023-02-28T11:19:20;4.57;;;2.38;;
11394;SDS011;5753;54.402;10.220;2023-02-28T11:21:55;6.38;;;2.17;;
11394;SDS011;5753;54.402;10.220;2023-02-28T11:24:35;6.05;;;3.67;;
11394;SDS011;5753;54.402;10.220;2023-02-28T11:27:10;2.38;;;2.17;;
11394;SDS011;5753;54.402;10.220;2023-02-28T11:29:50;4.78;;;2.63;;
11394;SDS011;5753;54.402;10.220;2023-02-28T11:32:18;4.38;;;2.67;;
11394;SDS011;5753;54.402;10.220;2023-02-28T11:35:01;4.18;;;2.78;;
11394;SDS011;5753;54.402;10.220;2023-02-28T11:37:36;4.57;;;3.38;;
11394;SDS011;5753;54.402;10.220;2023-02-28T11:40:21;4.53;;;3.53;;
11394;SDS011;5753;54.402;10.220;2023-02-28T11:45:58;3.33;;;2.85;;
11394;SDS011;5753;54.402;10.220;2023-02-28T11:48:33;4.75;;;2.95;;
11394;SDS011;5753;54.402;10.220;2023-02-28T11:59:42;7.38;;;3.55;;
11394;SDS011;5753;54.402;10.220;2023-02-28T12:02:28;6.50;;;3.97;;
11394;SDS011;5753;54.402;10.220;2023-02-28T12:05:13;6.88;;;3.75;;
11394;SDS011;5753;54.402;10.220;2023-02-28T12:10:57;4.22;;;3.10;;
11394;SDS011;5753;54.402;10.220;2023-02-28T12:27:40;9.27;;;4.28;;
11394;SDS011;5753;54.402;10.220;2023-02-28T12:30:18;5.57;;;3.70;;
11394;SDS011;5753;54.402;10.220;2023-02-28T12:32:47;5.32;;;4.63;;
11394;SDS011;5753;54.402;10.220;2023-02-28T12:35:19;3.63;;;2.45;;
11394;SDS011;5753;54.402;10.220;2023-02-28T12:43:09;4.03;;;3.17;;
11394;SDS011;5753;54.402;10.220;2023-02-28T12:45:41;3.92;;;3.28;;
11394;SDS011;5753;54.402;10.220;2023-02-28T12:48:22;6.43;;;5.80;;
11394;SDS011;5753;54.402;10.220;2023-02-28T12:50:55;4.15;;;3.00;;
11394;SDS011;5753;54.402;10.220;2023-02-28T12:56:23;6.43;;;4.65;;
11394;SDS011;5753;54.402;10.220;2023-02-28T12:58:54;5.53;;;3.92;;
11394;SDS011;5753;54.402;10.220;2023-02-28T13:09:20;3.90;;;3.38;;
11394;SDS011;5753;54.402;10.220;2023-02-28T13:11:47;4.82;;;4.43;;
11394;SDS011;5753;54.402;10.220;2023-02-28T13:16:48;3.72;;;3.05;;
11394;SDS011;5753;54.402;10.220;2023-02-28T13:19:22;3.63;;;3.33;;
11394;SDS011;5753;54.402;10.220;2023-02-28T13:21:54;3.47;;;2.95;;
11394;SDS011;5753;54.402;10.220;2023-02-28T13:29:38;2.42;;;1.80;;
11394;SDS011;5753;54.402;10.220;2023-02-28T13:34:36;10.10;;;2.38;;
11394;SDS011;5753;54.402;10.220;2023-02-28T13:45:28;3.90;;;2.00;;
11394;SDS011;5753;54.402;10.220;2023-02-28T13:48:04;7.43;;;2.90;;
11394;SDS011;5753;54.402;10.220;2023-02-28T13:50:42;3.45;;;2.53;;
11394;SDS011;5753;54.402;10.220;2023-02-28T14:03:58;4.00;;;2.65;;
11394;SDS011;5753;54.402;10.220;2023-02-28T14:06:34;3.00;;;2.33;;
11394;SDS011;5753;54.402;10.220;2023-02-28T14:09:25;4.63;;;2.63;;
11394;SDS011;5753;54.402;10.220;2023-02-28T14:11:51;3.78;;;3.22;;
11394;SDS011;5753;54.402;10.220;2023-02-28T14:17:01;5.63;;;5.05;;
11394;SDS011;5753;54.402;10.220;2023-02-28T14:19:32;5.60;;;4.65;;
11394;SDS011;5753;54.402;10.220;2023-02-28T14:36:30;6.57;;;3.60;;
11394;SDS011;5753;54.402;10.220;2023-02-28T14:39:07;3.72;;;3.25;;
11394;SDS011;5753;54.402;10.220;2023-02-28T14:41:37;5.03;;;3.92;;
11394;SDS011;5753;54.402;10.220;2023-02-28T14:44:22;4.35;;;3.95;;
11394;SDS011;5753;54.402;10.220;2023-02-28T14:46:54;6.72;;;3.10;;
11394;SDS011;5753;54.402;10.220;2023-02-28T14:49:43;3.88;;;3.58;;
11394;SDS011;5753;54.402;10.220;2023-02-28T14:52:17;5.18;;;4.28;;
11394;SDS011;5753;54.402;10.220;2023-02-28T14:54:54;5.20;;;4.15;;
11394;SDS011;5753;54.402;10.220;2023-02-28T14:57:28;8.45;;;4.88;;
11394;SDS011;5753;54.402;10.220;2023-02-28T15:02:25;5.15;;;4.13;;
11394;SDS011;5753;54.402;10.220;2023-02-28T15:05:00;5.72;;;3.22;;
11394;SDS011;5753;54.402;10.220;2023-02-28T15:07:41;4.88;;;3.78;;
11394;SDS011;5753;54.402;10.220;2023-02-28T15:15:21;6.10;;;4.22;;
11394;SDS011;5753;54.402;10.220;2023-02-28T15:17:51;6.78;;;5.53;;
11394;SDS011;5753;54.402;10.220;2023-02-28T15:20:21;11.20;;;5.07;;
11394;SDS011;5753;54.402;10.220;2023-02-28T15:22:50;6.43;;;5.00;;
11394;SDS011;5753;54.402;10.220;2023-02-28T15:25:20;7.13;;;5.53;;
11394;SDS011;5753;54.402;10.220;2023-02-28T15:27:51;7.47;;;4.30;;
11394;SDS011;5753;54.402;10.220;2023-02-28T15:30:21;10.40;;;4.25;;
11394;SDS011;5753;54.402;10.220;2023-02-28T15:36:05;8.68;;;6.15;;
11394;SDS011;5753;54.402;10.220;2023-02-28T15:38:37;13.15;;;6.65;;
11394;SDS011;5753;54.402;10.220;2023-02-28T15:41:04;6.00;;;5.50;;
11394;SDS011;5753;54.402;10.220;2023-02-28T15:43:37;5.38;;;4.47;;
11394;SDS011;5753;54.402;10.220;2023-02-28T15:46:05;6.15;;;4.10;;
11394;SDS011;5753;54.402;10.220;2023-02-28T15:48:38;7.30;;;3.97;;
11394;SDS011;5753;54.402;10.220;2023-02-28T15:51:17;7.00;;;5.40;;
11394;SDS011;5753;54.402;10.220;2023-02-28T15:53:59;7.57;;;5.80;;
11394;SDS011;5753;54.402;10.220;2023-02-28T15:56:32;6.45;;;5.63;;
11394;SDS011;5753;54.402;10.220;2023-02-28T15:59:05;9.10;;;5.53;;
11394;SDS011;5753;54.402;10.220;2023-02-28T16:01:38;6.13;;;4.28;;
11394;SDS011;5753;54.402;10.220;2023-02-28T16:04:06;6.25;;;4.50;;
11394;SDS011;5753;54.402;10.220;2023-02-28T16:06:40;7.50;;;4.22;;
11394;SDS011;5753;54.402;10.220;2023-02-28T16:09:16;6.25;;;4.88;;
11394;SDS011;5753;54.402;10.220;2023-02-28T16:11:45;6.72;;;4.18;;
11394;SDS011;5753;54.402;10.220;2023-02-28T16:14:20;8.32;;;4.88;;
11394;SDS011;5753;54.402;10.220;2023-02-28T16:16:49;8.13;;;5.97;;
11394;SDS011;5753;54.402;10.220;2023-02-28T16:19:18;6.00;;;4.55;;
11394;SDS011;5753;54.402;10.220;2023-02-28T16:21:44;8.07;;;4.43;;
11394;SDS011;5753;54.402;10.220;2023-02-28T16:24:11;8.73;;;7.22;;
11394;SDS011;5753;54.402;10.220;2023-02-28T16:26:38;9.85;;;5.13;;
11394;SDS011;5753;54.402;10.220;2023-02-28T16:29:08;8.40;;;5.63;;
11394;SDS011;5753;54.402;10.220;2023-02-28T16:31:38;7.35;;;5.93;;
11394;SDS011;5753;54.402;10.220;2023-02-28T16:34:05;5.25;;;4.50;;
11394;SDS011;5753;54.402;10.220;2023-02-28T16:36:31;7.80;;;5.47;;
11394;SDS011;5753;54.402;10.220;2023-02-28T16:38:57;8.40;;;5.40;;
11394;SDS011;5753;54.402;10.220;2023-02-28T16:41:24;8.90;;;5.40;;
11394;SDS011;5753;54.402;10.220;2023-02-28T16:43:53;9.02;;;7.65;;
11394;SDS011;5753;54.402;10.220;2023-02-28T16:46:26;5.70;;;5.10;;
11394;SDS011;5753;54.402;10.220;2023-02-28T16:48:59;9.93;;;7.25;;
11394;SDS011;5753;54.402;10.220;2023-02-28T16:51:26;12.70;;;5.47;;
11394;SDS011;5753;54.402;10.220;2023-02-28T16:53:52;7.07;;;4.85;;
11394;SDS011;5753;54.402;10.220;2023-02-28T16:56:19;5.95;;;3.88;;
11394;SDS011;5753;54.402;10.220;2023-02-28T16:58:47;9.27;;;5.65;;
11394;SDS011;5753;54.402;10.220;2023-02-28T17:01:15;9.68;;;7.22;;
11394;SDS011;5753;54.402;10.220;2023-02-28T17:03:46;7.97;;;6.30;;
11394;SDS011;5753;54.402;10.220;2023-02-28T17:06:26;14.13;;;6.85;;
11394;SDS011;5753;54.402;10.220;2023-02-28T17:08:54;6.82;;;5.65;;
11394;SDS011;5753;54.402;10.220;2023-02-28T17:11:21;14.10;;;7.00;;
11394;SDS011;5753;54.402;10.220;2023-02-28T17:13:47;13.75;;;7.20;;
11394;SDS011;5753;54.402;10.220;2023-02-28T17:16:20;12.48;;;8.57;;
11394;SDS011;5753;54.402;10.220;2023-02-28T17:18:54;14.77;;;10.25;;
11394;SDS011;5753;54.402;10.220;2023-02-28T17:21:23;15.82;;;9.68;;
11394;SDS011;5753;54.402;10.220;2023-02-28T17:23:49;16.30;;;9.73;;
11394;SDS011;5753;54.402;10.220;2023-02-28T17:26:16;23.45;;;12.35;;
11394;SDS011;5753;54.402;10.220;2023-02-28T17:28:49;12.35;;;9.30;;
11394;SDS011;5753;54.402;10.220;2023-02-28T17:31:16;19.10;;;11.25;;
11394;SDS011;5753;54.402;10.220;2023-02-28T17:33:43;13.75;;;9.25;;
11394;SDS011;5753;54.402;10.220;2023-02-28T17:36:13;10.60;;;8.32;;
11394;SDS011;5753;54.402;10.220;2023-02-28T17:38:40;12.48;;;9.80;;
11394;SDS011;5753;54.402;10.220;2023-02-28T17:41:09;19.10;;;12.32;;